createdAt,value
2023-01-19T00:00:56.352Z,39.33
2023-01-19T00:03:23.489Z,48.53
2023-01-19T00:05:51.296Z,43.55
2023-01-19T00:08:18.725Z,41.30
2023-01-19T00:10:50.953Z,29.93
2023-01-19T00:13:18.133Z,39.45
2023-01-19T00:15:45.904Z,39.83
2023-01-19T00:18:13.000Z,46.97
2023-01-19T00:20:41.016Z,40.03
2023-01-19T00:23:08.732Z,32.27
2023-01-19T00:25:42.357Z,39.20
2023-01-19T00:28:15.035Z,24.08
2023-01-19T00:30:42.972Z,10.40
2023-01-19T00:33:14.440Z,10.82
2023-01-19T00:35:44.820Z,8.07
2023-01-19T00:38:12.892Z,8.30
2023-01-19T00:40:39.968Z,7.43
2023-01-19T00:43:07.059Z,5.80
2023-01-19T00:45:34.694Z,5.72
2023-01-19T00:48:02.060Z,13.97
2023-01-19T00:50:31.318Z,7.22
2023-01-19T00:53:03.487Z,7.10
2023-01-19T00:55:33.460Z,10.60
2023-01-19T00:58:00.616Z,12.90
2023-01-19T01:00:27.835Z,19.53
2023-01-19T01:02:55.823Z,26.23
2023-01-19T01:05:23.113Z,26.13
2023-01-19T01:07:50.649Z,29.13
2023-01-19T01:10:37.587Z,35.50
2023-01-19T01:13:20.766Z,37.43
2023-01-19T01:15:54.466Z,35.95
2023-01-19T01:18:22.736Z,33.47
2023-01-19T01:20:50.088Z,39.80
2023-01-19T01:23:22.870Z,34.95
2023-01-19T01:25:50.111Z,27.73
2023-01-19T01:28:17.218Z,31.30
2023-01-19T01:30:44.381Z,26.60
2023-01-19T01:33:11.853Z,26.33
2023-01-19T01:35:40.519Z,24.73
2023-01-19T01:38:07.594Z,28.33
2023-01-19T01:40:34.661Z,22.05
2023-01-19T01:43:02.820Z,21.95
2023-01-19T01:45:39.406Z,22.48
2023-01-19T01:48:15.327Z,16.85
2023-01-19T01:51:19.408Z,16.83
2023-01-19T01:53:49.975Z,12.07
2023-01-19T01:56:24.156Z,11.15
2023-01-19T01:58:51.348Z,12.65
2023-01-19T02:01:44.608Z,11.20
2023-01-19T02:04:11.840Z,12.70
2023-01-19T02:06:57.916Z,14.32
2023-01-19T02:09:46.647Z,9.70
2023-01-19T02:12:32.670Z,6.10
2023-01-19T02:14:59.801Z,3.05
2023-01-19T02:17:26.897Z,7.97
2023-01-19T02:19:54.317Z,4.30
2023-01-19T02:22:35.930Z,4.50
2023-01-19T02:25:05.766Z,5.88
2023-01-19T02:27:33.906Z,6.78
2023-01-19T02:30:03.608Z,6.07
2023-01-19T02:32:30.924Z,7.28
2023-01-19T02:34:58.396Z,5.75
2023-01-19T02:37:29.828Z,8.07
2023-01-19T02:40:00.475Z,5.93
2023-01-19T02:42:44.418Z,4.50
2023-01-19T02:45:15.153Z,8.18
2023-01-19T02:47:51.830Z,10.80
2023-01-19T02:50:47.539Z,11.23
2023-01-19T02:53:32.504Z,12.13
2023-01-19T02:56:24.743Z,8.17
2023-01-19T02:59:27.277Z,6.18
2023-01-19T03:02:29.737Z,5.30
2023-01-19T03:05:21.753Z,9.20
2023-01-19T03:08:17.586Z,10.40
2023-01-19T03:10:55.070Z,10.23
2023-01-19T03:13:50.079Z,8.10
2023-01-19T03:16:43.121Z,4.68
2023-01-19T03:19:19.077Z,5.35
2023-01-19T03:21:52.664Z,6.38
2023-01-19T03:24:23.217Z,2.03
2023-01-19T03:27:00.372Z,1.85
2023-01-19T03:29:31.710Z,7.45
2023-01-19T03:32:09.016Z,5.88
2023-01-19T03:34:39.318Z,4.15
2023-01-19T03:37:08.220Z,6.40
2023-01-19T03:39:35.365Z,7.97
2023-01-19T03:42:08.647Z,1.67
2023-01-19T03:44:38.626Z,2.80
2023-01-19T03:47:08.756Z,5.70
2023-01-19T03:49:37.902Z,5.93
2023-01-19T03:52:05.881Z,6.93
2023-01-19T03:54:33.021Z,4.20
2023-01-19T03:57:00.135Z,4.35
2023-01-19T03:59:27.262Z,3.83
2023-01-19T04:01:54.581Z,6.17
2023-01-19T04:04:21.789Z,4.10
2023-01-19T04:06:48.943Z,7.57
2023-01-19T04:09:17.521Z,5.47
2023-01-19T04:11:45.694Z,3.60
2023-01-19T04:14:12.753Z,8.10
2023-01-19T04:16:39.903Z,5.68
2023-01-19T04:19:07.046Z,2.38
2023-01-19T04:21:35.163Z,4.85
2023-01-19T04:24:02.275Z,5.53
2023-01-19T04:26:29.659Z,3.60
2023-01-19T04:28:56.716Z,3.20
2023-01-19T04:31:23.838Z,2.50
2023-01-19T04:33:50.896Z,4.18
2023-01-19T04:36:17.978Z,5.45
2023-01-19T04:38:46.599Z,2.93
2023-01-19T04:41:13.675Z,5.07
2023-01-19T04:43:40.844Z,4.25
2023-01-19T04:46:08.025Z,4.97
2023-01-19T04:48:35.266Z,4.88
2023-01-19T04:51:02.339Z,4.60
2023-01-19T04:53:29.394Z,2.70
2023-01-19T04:55:56.924Z,3.72
2023-01-19T04:58:24.005Z,7.85
2023-01-19T05:00:52.179Z,9.65
2023-01-19T05:03:20.111Z,6.10
2023-01-19T05:05:47.223Z,5.05
2023-01-19T05:08:14.327Z,6.93
2023-01-19T05:10:41.429Z,6.95
2023-01-19T05:13:08.542Z,8.57
2023-01-19T05:15:35.631Z,6.30
2023-01-19T05:18:02.786Z,8.70
2023-01-19T05:20:29.889Z,6.90
2023-01-19T05:22:57.098Z,5.70
2023-01-19T05:25:24.278Z,5.60
2023-01-19T05:27:51.309Z,9.63
2023-01-19T05:30:19.595Z,15.60
2023-01-19T05:32:47.220Z,11.18
2023-01-19T05:35:16.705Z,6.57
2023-01-19T05:37:45.527Z,16.52
2023-01-19T05:40:13.137Z,12.93
2023-01-19T05:42:40.257Z,9.07
2023-01-19T05:45:08.174Z,12.95
2023-01-19T05:47:35.307Z,15.68
2023-01-19T05:50:02.443Z,14.65
2023-01-19T05:52:29.474Z,13.47
2023-01-19T05:54:56.580Z,13.05
2023-01-19T05:57:24.306Z,21.42
2023-01-19T05:59:51.542Z,16.42
2023-01-19T06:02:18.673Z,17.65
2023-01-19T06:04:45.773Z,11.10
2023-01-19T06:07:12.829Z,17.50
2023-01-19T06:09:39.875Z,15.52
2023-01-19T06:12:07.164Z,8.43
2023-01-19T06:14:34.320Z,14.88
2023-01-19T06:17:01.372Z,15.70
2023-01-19T06:19:28.501Z,17.67
2023-01-19T06:21:55.892Z,18.17
2023-01-19T06:24:24.023Z,14.85
2023-01-19T06:26:51.389Z,16.23
2023-01-19T06:30:38.541Z,12.03
2023-01-19T06:33:05.825Z,16.27
2023-01-19T06:35:32.880Z,17.75
2023-01-19T06:38:00.111Z,8.40
2023-01-19T06:40:27.232Z,21.02
2023-01-19T06:42:54.225Z,16.17
2023-01-19T06:45:21.293Z,15.02
2023-01-19T06:47:48.524Z,10.68
2023-01-19T06:50:16.110Z,14.70
2023-01-19T06:52:43.252Z,14.07
2023-01-19T06:55:12.088Z,19.60
2023-01-19T06:57:40.217Z,20.33
2023-01-19T07:00:09.084Z,17.77
2023-01-19T07:02:36.664Z,22.13
2023-01-19T07:05:06.655Z,15.48
2023-01-19T07:07:33.963Z,17.37
2023-01-19T07:10:01.142Z,11.18
2023-01-19T07:12:28.274Z,13.30
2023-01-19T07:14:55.613Z,19.77
2023-01-19T07:17:22.766Z,21.75
2023-01-19T07:19:49.778Z,15.00
2023-01-19T07:22:17.033Z,13.48
2023-01-19T07:24:44.246Z,17.15
2023-01-19T07:27:14.721Z,20.70
2023-01-19T07:29:42.322Z,13.15
2023-01-19T07:32:09.425Z,25.47
2023-01-19T07:34:36.978Z,11.68
2023-01-19T07:37:04.373Z,16.67
2023-01-19T07:39:31.944Z,11.57
2023-01-19T07:41:59.098Z,15.68
2023-01-19T07:44:26.132Z,15.10
2023-01-19T07:46:53.280Z,19.88
2023-01-19T07:49:20.653Z,13.57
2023-01-19T07:51:47.820Z,11.20
2023-01-19T07:54:15.005Z,13.05
2023-01-19T07:56:42.039Z,20.83
2023-01-19T07:59:11.064Z,14.75
2023-01-19T08:01:38.962Z,15.32
2023-01-19T08:04:06.199Z,18.98
2023-01-19T08:06:35.968Z,18.20
2023-01-19T08:09:05.634Z,20.17
2023-01-19T08:11:33.381Z,20.52
2023-01-19T08:14:00.876Z,22.13
2023-01-19T08:16:27.990Z,17.00
2023-01-19T08:18:55.341Z,20.23
2023-01-19T08:21:22.425Z,17.27
2023-01-19T08:23:57.722Z,20.80
2023-01-19T08:26:31.815Z,19.75
2023-01-19T08:29:02.962Z,22.95
2023-01-19T08:31:30.449Z,16.90
2023-01-19T08:33:58.155Z,22.67
2023-01-19T08:36:25.443Z,21.58
2023-01-19T08:38:52.535Z,22.92
2023-01-19T08:41:19.809Z,17.85
2023-01-19T08:43:47.102Z,23.05
2023-01-19T08:46:18.501Z,16.03
2023-01-19T08:48:45.627Z,29.63
2023-01-19T08:51:13.092Z,16.02
2023-01-19T08:53:41.314Z,20.05
2023-01-19T08:56:13.632Z,20.23
2023-01-19T08:58:42.883Z,24.67
2023-01-19T09:01:14.559Z,14.88
2023-01-19T09:03:41.755Z,20.85
2023-01-19T09:06:10.872Z,28.30
2023-01-19T09:08:38.450Z,30.17
2023-01-19T09:11:11.092Z,15.83
2023-01-19T09:13:38.551Z,21.35
2023-01-19T09:16:11.382Z,19.45
2023-01-19T09:18:39.413Z,14.93
2023-01-19T09:21:06.522Z,24.92
2023-01-19T09:23:33.606Z,24.60
2023-01-19T09:26:07.045Z,15.32
2023-01-19T09:28:34.756Z,13.65
2023-01-19T09:31:07.049Z,14.85
2023-01-19T09:33:34.995Z,11.75
2023-01-19T09:36:02.335Z,17.43
2023-01-19T09:38:32.602Z,22.02
2023-01-19T09:41:00.879Z,13.75
2023-01-19T09:43:33.848Z,11.00
2023-01-19T09:46:39.947Z,11.90
2023-01-19T09:49:23.289Z,6.83
2023-01-19T09:51:51.741Z,16.17
2023-01-19T09:54:23.465Z,12.50
2023-01-19T09:56:52.848Z,15.05
2023-01-19T09:59:25.181Z,12.35
2023-01-19T10:02:01.240Z,12.87
2023-01-19T10:04:45.180Z,17.77
2023-01-19T10:07:33.448Z,11.85
2023-01-19T10:10:25.720Z,13.88
2023-01-19T10:13:19.982Z,9.70
2023-01-19T10:16:26.220Z,8.00
2023-01-19T10:18:59.657Z,10.35
2023-01-19T10:21:31.554Z,12.30
2023-01-19T10:24:21.536Z,8.07
2023-01-19T10:26:55.202Z,8.18
2023-01-19T10:29:37.969Z,11.70
2023-01-19T10:32:19.702Z,8.95
2023-01-19T10:34:49.056Z,7.22
2023-01-19T10:37:40.623Z,10.00
2023-01-19T10:40:10.725Z,10.13
2023-01-19T10:42:41.557Z,6.93
2023-01-19T10:45:25.974Z,9.45
2023-01-19T10:47:57.388Z,9.85
2023-01-19T10:50:31.745Z,4.93
2023-01-19T10:53:03.688Z,6.82
2023-01-19T10:55:39.915Z,7.97
2023-01-19T10:58:30.854Z,7.70
2023-01-19T11:01:19.208Z,6.35
2023-01-19T11:03:46.895Z,6.07
2023-01-19T11:06:15.245Z,7.55
2023-01-19T11:08:45.204Z,7.63
2023-01-19T11:11:13.040Z,5.85
2023-01-19T11:13:42.170Z,9.40
2023-01-19T11:16:22.660Z,9.35
2023-01-19T11:18:53.450Z,5.97
2023-01-19T11:21:26.066Z,5.00
2023-01-19T11:24:05.233Z,5.43
2023-01-19T11:26:49.114Z,8.70
2023-01-19T11:29:21.630Z,5.30
2023-01-19T11:31:49.788Z,4.65
2023-01-19T11:34:34.635Z,6.30
2023-01-19T11:37:10.625Z,9.82
2023-01-19T11:39:53.761Z,8.13
2023-01-19T11:42:21.932Z,7.47
2023-01-19T11:45:13.583Z,7.57
2023-01-19T11:47:52.586Z,6.77
2023-01-19T11:50:39.185Z,5.82
2023-01-19T11:53:25.223Z,7.95
2023-01-19T11:56:17.622Z,4.13
2023-01-19T11:58:48.849Z,5.55
2023-01-19T12:01:27.568Z,5.10
2023-01-19T12:04:14.353Z,6.20
2023-01-19T12:06:47.524Z,5.35
2023-01-19T12:09:31.218Z,5.88
2023-01-19T12:12:07.840Z,4.88
2023-01-19T12:14:59.871Z,7.80
2023-01-19T12:17:35.504Z,7.82
2023-01-19T12:20:22.902Z,6.45
2023-01-19T12:22:59.898Z,6.10
2023-01-19T12:25:43.372Z,5.28
2023-01-19T12:28:15.526Z,16.70
2023-01-19T12:30:48.487Z,4.55
2023-01-19T12:33:23.612Z,7.38
2023-01-19T12:36:00.988Z,7.60
2023-01-19T12:38:45.645Z,3.08
2023-01-19T12:41:25.668Z,3.67
2023-01-19T12:44:10.873Z,8.13
2023-01-19T12:46:54.419Z,4.10
2023-01-19T12:49:28.345Z,8.20
2023-01-19T12:52:22.771Z,5.00
2023-01-19T12:55:18.028Z,8.30
2023-01-19T12:58:34.474Z,6.20
2023-01-19T13:01:18.708Z,7.93
2023-01-19T13:04:01.356Z,5.88
2023-01-19T13:06:47.178Z,3.47
2023-01-19T13:09:37.365Z,3.63
2023-01-19T13:12:22.921Z,4.30
2023-01-19T13:14:50.787Z,5.20
2023-01-19T13:17:34.367Z,8.80
2023-01-19T13:20:23.205Z,5.20
2023-01-19T13:23:22.806Z,4.43
2023-01-19T13:25:54.924Z,4.88
2023-01-19T13:28:32.302Z,4.05
2023-01-19T13:31:02.653Z,2.47
2023-01-19T13:33:41.068Z,4.68
2023-01-19T13:36:26.163Z,3.73
2023-01-19T13:38:53.957Z,5.07
2023-01-19T13:41:25.182Z,5.22
2023-01-19T13:44:28.504Z,4.47
2023-01-19T13:46:59.251Z,3.65
2023-01-19T13:49:45.126Z,6.00
2023-01-19T13:52:15.154Z,3.63
2023-01-19T13:54:59.801Z,4.35
2023-01-19T13:57:45.238Z,2.22
2023-01-19T14:00:12.660Z,4.32
2023-01-19T14:02:52.198Z,1.77
2023-01-19T14:05:35.180Z,5.43
2023-01-19T14:08:05.295Z,4.32
2023-01-19T14:10:34.449Z,2.78
2023-01-19T14:13:16.259Z,5.80
2023-01-19T14:15:44.768Z,3.73
2023-01-19T14:18:24.447Z,1.77
2023-01-19T14:21:11.725Z,4.72
2023-01-19T14:23:47.675Z,5.18
2023-01-19T14:26:51.267Z,2.72
2023-01-19T14:29:33.149Z,2.13
2023-01-19T14:32:19.847Z,3.70
2023-01-19T14:35:12.947Z,5.00
2023-01-19T14:37:48.111Z,3.20
2023-01-19T14:40:20.783Z,3.95
2023-01-19T14:43:02.948Z,4.43
2023-01-19T14:45:42.803Z,5.10
2023-01-19T14:48:18.727Z,4.05
2023-01-19T14:51:02.032Z,2.90
2023-01-19T14:53:36.646Z,5.70
2023-01-19T14:56:07.735Z,1.23
2023-01-19T14:58:36.049Z,3.75
2023-01-19T15:01:04.529Z,3.75
2023-01-19T15:03:44.103Z,3.72
2023-01-19T15:06:20.611Z,3.42
2023-01-19T15:08:50.001Z,6.67
2023-01-19T15:11:27.391Z,4.35
2023-01-19T15:13:55.440Z,2.50
2023-01-19T15:16:24.592Z,4.50
2023-01-19T15:18:51.825Z,4.90
2023-01-19T15:21:23.156Z,5.30
2023-01-19T15:23:50.635Z,3.55
2023-01-19T15:26:21.726Z,4.68
2023-01-19T15:28:49.356Z,3.70
2023-01-19T15:31:22.630Z,4.07
2023-01-19T15:33:50.284Z,2.87
2023-01-19T15:36:20.798Z,4.55
2023-01-19T15:38:50.778Z,2.25
2023-01-19T15:41:28.537Z,6.15
2023-01-19T15:43:55.857Z,4.82
2023-01-19T15:46:25.669Z,3.47
2023-01-19T15:48:54.101Z,3.30
2023-01-19T15:51:25.403Z,4.90
2023-01-19T15:53:53.972Z,4.13
2023-01-19T15:56:24.662Z,3.17
2023-01-19T15:58:53.475Z,3.20
2023-01-19T16:01:23.621Z,3.22
2023-01-19T16:03:51.352Z,4.30
2023-01-19T16:06:18.522Z,3.53
2023-01-19T16:08:45.871Z,3.75
2023-01-19T16:11:15.250Z,2.73
2023-01-19T16:13:48.968Z,4.65
2023-01-19T16:16:22.621Z,4.13
2023-01-19T16:18:50.460Z,4.22
2023-01-19T16:21:17.783Z,4.25
2023-01-19T16:23:44.909Z,6.33
2023-01-19T16:26:32.473Z,2.60
2023-01-19T16:29:02.677Z,2.70
2023-01-19T16:31:30.139Z,5.15
2023-01-19T16:33:57.347Z,5.25
2023-01-19T16:36:30.523Z,4.47
2023-01-19T16:39:10.201Z,3.90
2023-01-19T16:41:37.747Z,4.57
2023-01-19T16:44:06.016Z,6.25
2023-01-19T16:46:36.670Z,4.35
2023-01-19T16:49:13.394Z,5.00
2023-01-19T16:51:40.614Z,3.10
2023-01-19T16:54:09.429Z,3.92
2023-01-19T16:56:36.495Z,6.18
2023-01-19T16:59:03.540Z,8.15
2023-01-19T17:01:30.939Z,8.33
2023-01-19T17:03:58.124Z,9.05
2023-01-19T17:06:26.519Z,8.65
2023-01-19T17:08:53.653Z,12.60
2023-01-19T17:11:30.751Z,10.88
2023-01-19T17:14:04.123Z,11.13
2023-01-19T17:16:33.745Z,11.35
2023-01-19T17:19:03.552Z,14.20
2023-01-19T17:21:30.804Z,13.20
2023-01-19T17:23:59.139Z,15.18
2023-01-19T17:26:30.702Z,16.27
2023-01-19T17:29:03.486Z,14.25
2023-01-19T17:31:32.042Z,17.10
2023-01-19T17:34:00.661Z,13.15
2023-01-19T17:36:30.135Z,14.00
2023-01-19T17:39:00.359Z,14.47
2023-01-19T17:41:30.769Z,14.52
2023-01-19T17:44:01.221Z,11.43
2023-01-19T17:46:29.966Z,11.45
2023-01-19T17:49:03.218Z,14.25
2023-01-19T17:51:31.823Z,12.23
2023-01-19T17:53:59.811Z,14.10
2023-01-19T17:56:32.922Z,13.98
2023-01-19T17:59:00.130Z,8.70
2023-01-19T18:01:30.837Z,14.00
2023-01-19T18:03:59.044Z,12.70
2023-01-19T18:06:26.492Z,15.05
2023-01-19T18:08:54.083Z,17.30
2023-01-19T18:11:21.901Z,21.58
2023-01-19T18:13:51.738Z,24.33
2023-01-19T18:16:24.824Z,20.30
2023-01-19T18:18:53.743Z,18.48
2023-01-19T18:21:22.796Z,15.43
2023-01-19T18:23:51.241Z,19.85
2023-01-19T18:26:21.239Z,18.95
2023-01-19T18:28:49.836Z,17.63
2023-01-19T18:31:19.275Z,21.02
2023-01-19T18:33:48.434Z,17.23
2023-01-19T18:36:16.713Z,18.30
2023-01-19T18:38:44.522Z,21.23
2023-01-19T18:41:14.043Z,24.10
2023-01-19T18:43:41.882Z,22.02
2023-01-19T18:46:09.720Z,29.33
2023-01-19T18:48:38.417Z,27.35
2023-01-19T18:51:11.328Z,27.50
2023-01-19T18:53:38.698Z,28.97
2023-01-19T18:56:06.636Z,27.27
2023-01-19T18:58:36.252Z,27.70
2023-01-19T19:01:03.810Z,22.80
2023-01-19T19:03:31.532Z,18.63
2023-01-19T19:06:03.510Z,19.80
2023-01-19T19:08:30.796Z,17.15
2023-01-19T19:10:57.877Z,18.65
2023-01-19T19:13:25.325Z,12.75
2023-01-19T19:15:52.608Z,17.27
2023-01-19T19:18:20.108Z,14.67
2023-01-19T19:20:47.206Z,14.25
2023-01-19T19:23:14.850Z,15.20
2023-01-19T19:25:41.912Z,13.18
2023-01-19T19:28:08.972Z,7.72
2023-01-19T19:30:37.856Z,12.10
2023-01-19T19:33:05.241Z,7.97
2023-01-19T19:35:32.325Z,9.52
2023-01-19T19:37:59.499Z,11.20
2023-01-19T19:40:28.022Z,9.38
2023-01-19T19:42:58.334Z,10.00
2023-01-19T19:45:26.021Z,8.98
2023-01-19T19:47:53.135Z,11.73
2023-01-19T19:50:20.303Z,9.13
2023-01-19T19:52:47.455Z,8.40
2023-01-19T19:55:14.576Z,9.40
2023-01-19T19:57:41.740Z,9.88
2023-01-19T20:00:09.722Z,5.93
2023-01-19T20:02:37.005Z,5.47
2023-01-19T20:05:05.212Z,5.70
2023-01-19T20:07:32.720Z,4.90
2023-01-19T20:09:59.855Z,3.72
2023-01-19T20:12:27.453Z,3.30
2023-01-19T20:14:54.526Z,3.97
2023-01-19T20:17:23.125Z,4.45
2023-01-19T20:19:50.284Z,4.10
2023-01-19T20:22:17.420Z,4.18
2023-01-19T20:24:44.682Z,8.75
2023-01-19T20:27:11.801Z,2.95
2023-01-19T20:29:39.047Z,3.30
2023-01-19T20:32:06.307Z,7.50
2023-01-19T20:34:34.110Z,3.13
2023-01-19T20:37:02.381Z,3.03
2023-01-19T20:39:33.122Z,1.83
2023-01-19T20:42:00.820Z,4.75
2023-01-19T20:44:28.150Z,3.80
2023-01-19T20:46:56.356Z,1.95
2023-01-19T20:49:23.645Z,1.77
2023-01-19T20:51:51.880Z,1.45
2023-01-19T20:54:22.667Z,1.30
2023-01-19T20:56:50.067Z,4.07
2023-01-19T20:59:17.768Z,3.13
2023-01-19T21:01:48.264Z,3.80
2023-01-19T21:04:17.191Z,2.55
2023-01-19T21:06:44.395Z,2.53
2023-01-19T21:09:11.597Z,2.07
2023-01-19T21:11:39.618Z,9.45
2023-01-19T21:14:07.474Z,7.72
2023-01-19T21:16:37.304Z,6.75
2023-01-19T21:19:05.799Z,5.63
2023-01-19T21:21:32.876Z,8.57
2023-01-19T21:24:02.519Z,7.35
2023-01-19T21:26:30.597Z,6.38
2023-01-19T21:29:02.571Z,7.22
2023-01-19T21:31:30.797Z,7.07
2023-01-19T21:33:58.495Z,7.07
2023-01-19T21:36:25.998Z,6.90
2023-01-19T21:38:55.591Z,8.32
2023-01-19T21:41:22.937Z,8.38
2023-01-19T21:43:50.041Z,9.07
2023-01-19T21:46:22.181Z,10.27
2023-01-19T21:48:49.335Z,10.38
2023-01-19T21:51:16.457Z,8.48
2023-01-19T21:53:43.788Z,8.18
2023-01-19T21:56:11.464Z,10.55
2023-01-19T21:58:38.949Z,11.93
2023-01-19T22:01:15.366Z,8.57
2023-01-19T22:03:43.168Z,10.30
2023-01-19T22:06:13.988Z,12.55
2023-01-19T22:08:41.806Z,13.55
2023-01-19T22:11:11.232Z,17.20
2023-01-19T22:13:38.986Z,15.88
2023-01-19T22:16:13.246Z,17.40
2023-01-19T22:18:43.883Z,19.00
2023-01-19T22:21:15.621Z,18.08
2023-01-19T22:23:43.485Z,15.23
2023-01-19T22:26:11.973Z,18.50
2023-01-19T22:28:39.076Z,17.60
2023-01-19T22:31:25.553Z,16.73
2023-01-19T22:33:53.467Z,17.63
2023-01-19T22:36:34.018Z,19.97
2023-01-19T22:39:05.304Z,15.00
2023-01-19T22:41:35.769Z,16.80
2023-01-19T22:44:11.213Z,20.08
2023-01-19T22:46:38.746Z,17.90
2023-01-19T22:49:07.762Z,16.50
2023-01-19T22:51:35.571Z,16.98
2023-01-19T22:54:03.737Z,20.88
2023-01-19T22:56:33.564Z,18.20
2023-01-19T22:59:01.582Z,21.20
2023-01-19T23:01:35.105Z,17.53
2023-01-19T23:04:04.508Z,18.15
2023-01-19T23:06:35.573Z,22.73
2023-01-19T23:09:14.201Z,15.98
2023-01-19T23:11:44.745Z,14.07
2023-01-19T23:14:19.749Z,16.93
2023-01-19T23:16:47.258Z,17.63
2023-01-19T23:19:17.012Z,16.30
2023-01-19T23:21:44.630Z,19.02
2023-01-19T23:24:12.306Z,15.70
2023-01-19T23:26:39.857Z,15.33
2023-01-19T23:29:13.790Z,15.00
2023-01-19T23:31:46.235Z,17.13
2023-01-19T23:34:14.669Z,15.75
2023-01-19T23:36:42.934Z,18.08
2023-01-19T23:39:20.624Z,18.37
2023-01-19T23:41:48.588Z,13.00
2023-01-19T23:44:17.170Z,17.05
2023-01-19T23:46:44.510Z,13.52
2023-01-19T23:49:13.006Z,15.15
2023-01-19T23:51:41.026Z,13.97
2023-01-19T23:54:08.229Z,15.40
2023-01-19T23:56:38.300Z,14.35
2023-01-19T23:59:11.441Z,12.65
